sensor_id;sensor_type;location;lat;lon;timestamp;P1;durP1;ratioP1;P2;durP2;ratioP2
15102;SDS011;7652;53.584;9.998;2024-01-07T00:01:21;2.67;;;1.40;;
15102;SDS011;7652;53.584;9.998;2024-01-07T00:04:44;2.53;;;1.70;;
15102;SDS011;7652;53.584;9.998;2024-01-07T00:08:06;4.30;;;1.33;;
15102;SDS011;7652;53.584;9.998;2024-01-07T00:11:28;3.73;;;1.60;;
15102;SDS011;7652;53.584;9.998;2024-01-07T00:14:49;2.17;;;1.40;;
15102;SDS011;7652;53.584;9.998;2024-01-07T00:18:11;3.10;;;1.67;;
15102;SDS011;7652;53.584;9.998;2024-01-07T00:21:34;2.47;;;1.70;;
15102;SDS011;7652;53.584;9.998;2024-01-07T00:24:56;1.40;;;1.30;;
15102;SDS011;7652;53.584;9.998;2024-01-07T00:28:18;1.87;;;1.37;;
15102;SDS011;7652;53.584;9.998;2024-01-07T00:31:40;2.83;;;1.40;;
15102;SDS011;7652;53.584;9.998;2024-01-07T00:35:01;1.93;;;1.37;;
15102;SDS011;7652;53.584;9.998;2024-01-07T00:38:25;1.50;;;1.40;;
15102;SDS011;7652;53.584;9.998;2024-01-07T00:41:46;1.67;;;1.43;;
15102;SDS011;7652;53.584;9.998;2024-01-07T00:45:08;3.60;;;1.60;;
15102;SDS011;7652;53.584;9.998;2024-01-07T00:48:30;1.60;;;1.43;;
15102;SDS011;7652;53.584;9.998;2024-01-07T00:51:51;2.17;;;1.43;;
15102;SDS011;7652;53.584;9.998;2024-01-07T00:55:14;2.37;;;1.40;;
15102;SDS011;7652;53.584;9.998;2024-01-07T00:58:36;1.73;;;1.37;;
15102;SDS011;7652;53.584;9.998;2024-01-07T01:01:58;3.10;;;1.67;;
15102;SDS011;7652;53.584;9.998;2024-01-07T01:05:19;1.50;;;1.30;;
15102;SDS011;7652;53.584;9.998;2024-01-07T01:08:41;2.20;;;1.30;;
15102;SDS011;7652;53.584;9.998;2024-01-07T01:12:04;2.93;;;1.40;;
15102;SDS011;7652;53.584;9.998;2024-01-07T01:15:25;1.77;;;1.40;;
15102;SDS011;7652;53.584;9.998;2024-01-07T01:18:47;3.03;;;1.27;;
15102;SDS011;7652;53.584;9.998;2024-01-07T01:22:09;3.07;;;1.37;;
15102;SDS011;7652;53.584;9.998;2024-01-07T01:25:30;2.00;;;1.30;;
15102;SDS011;7652;53.584;9.998;2024-01-07T01:28:53;2.13;;;1.47;;
15102;SDS011;7652;53.584;9.998;2024-01-07T01:32:15;1.77;;;1.23;;
15102;SDS011;7652;53.584;9.998;2024-01-07T01:35:37;2.03;;;1.33;;
15102;SDS011;7652;53.584;9.998;2024-01-07T01:38:58;1.40;;;1.10;;
15102;SDS011;7652;53.584;9.998;2024-01-07T01:42:19;1.63;;;1.37;;
15102;SDS011;7652;53.584;9.998;2024-01-07T01:45:43;2.97;;;1.40;;
15102;SDS011;7652;53.584;9.998;2024-01-07T01:49:04;2.03;;;1.40;;
15102;SDS011;7652;53.584;9.998;2024-01-07T01:52:27;1.80;;;1.40;;
15102;SDS011;7652;53.584;9.998;2024-01-07T01:55:49;3.47;;;1.50;;
15102;SDS011;7652;53.584;9.998;2024-01-07T01:59:11;1.90;;;1.20;;
15102;SDS011;7652;53.584;9.998;2024-01-07T02:02:35;1.97;;;1.40;;
15102;SDS011;7652;53.584;9.998;2024-01-07T02:05:56;2.00;;;1.37;;
15102;SDS011;7652;53.584;9.998;2024-01-07T02:09:19;3.47;;;1.20;;
15102;SDS011;7652;53.584;9.998;2024-01-07T02:12:40;1.30;;;1.10;;
15102;SDS011;7652;53.584;9.998;2024-01-07T02:16:02;1.67;;;1.20;;
15102;SDS011;7652;53.584;9.998;2024-01-07T02:19:25;1.87;;;1.20;;
15102;SDS011;7652;53.584;9.998;2024-01-07T02:22:47;1.37;;;1.27;;
15102;SDS011;7652;53.584;9.998;2024-01-07T02:26:10;1.90;;;1.23;;
15102;SDS011;7652;53.584;9.998;2024-01-07T02:29:31;1.10;;;1.00;;
15102;SDS011;7652;53.584;9.998;2024-01-07T02:32:53;3.37;;;1.27;;
15102;SDS011;7652;53.584;9.998;2024-01-07T02:36:15;2.43;;;1.40;;
15102;SDS011;7652;53.584;9.998;2024-01-07T02:39:37;2.60;;;1.40;;
15102;SDS011;7652;53.584;9.998;2024-01-07T02:42:59;2.83;;;1.20;;
15102;SDS011;7652;53.584;9.998;2024-01-07T02:46:22;2.20;;;1.30;;
15102;SDS011;7652;53.584;9.998;2024-01-07T02:49:45;2.00;;;1.10;;
15102;SDS011;7652;53.584;9.998;2024-01-07T02:53:07;3.07;;;1.50;;
15102;SDS011;7652;53.584;9.998;2024-01-07T02:56:30;1.53;;;1.17;;
15102;SDS011;7652;53.584;9.998;2024-01-07T02:59:53;2.70;;;1.40;;
15102;SDS011;7652;53.584;9.998;2024-01-07T03:03:15;2.13;;;1.23;;
15102;SDS011;7652;53.584;9.998;2024-01-07T03:06:37;1.60;;;1.50;;
15102;SDS011;7652;53.584;9.998;2024-01-07T03:09:58;4.77;;;1.10;;
15102;SDS011;7652;53.584;9.998;2024-01-07T03:13:20;1.80;;;1.27;;
15102;SDS011;7652;53.584;9.998;2024-01-07T03:16:42;2.17;;;1.10;;
15102;SDS011;7652;53.584;9.998;2024-01-07T03:20:04;2.30;;;1.20;;
15102;SDS011;7652;53.584;9.998;2024-01-07T03:23:26;1.63;;;1.30;;
15102;SDS011;7652;53.584;9.998;2024-01-07T03:26:48;1.77;;;1.20;;
15102;SDS011;7652;53.584;9.998;2024-01-07T03:30:10;5.17;;;1.37;;
15102;SDS011;7652;53.584;9.998;2024-01-07T03:33:33;2.13;;;1.47;;
15102;SDS011;7652;53.584;9.998;2024-01-07T03:36:55;1.77;;;1.30;;
15102;SDS011;7652;53.584;9.998;2024-01-07T03:40:17;1.30;;;0.90;;
15102;SDS011;7652;53.584;9.998;2024-01-07T03:43:39;1.20;;;1.10;;
15102;SDS011;7652;53.584;9.998;2024-01-07T03:47:00;1.50;;;1.30;;
15102;SDS011;7652;53.584;9.998;2024-01-07T03:50:23;2.10;;;1.10;;
15102;SDS011;7652;53.584;9.998;2024-01-07T03:53:45;1.30;;;1.20;;
15102;SDS011;7652;53.584;9.998;2024-01-07T03:57:06;3.20;;;1.50;;
15102;SDS011;7652;53.584;9.998;2024-01-07T04:00:28;2.90;;;1.10;;
15102;SDS011;7652;53.584;9.998;2024-01-07T04:03:49;2.10;;;1.10;;
15102;SDS011;7652;53.584;9.998;2024-01-07T04:07:12;3.27;;;1.23;;
15102;SDS011;7652;53.584;9.998;2024-01-07T04:10:34;3.13;;;1.00;;
15102;SDS011;7652;53.584;9.998;2024-01-07T04:13:55;1.57;;;1.07;;
15102;SDS011;7652;53.584;9.998;2024-01-07T04:17:17;1.37;;;1.10;;
15102;SDS011;7652;53.584;9.998;2024-01-07T04:20:38;2.23;;;1.13;;
15102;SDS011;7652;53.584;9.998;2024-01-07T04:24:01;1.80;;;0.70;;
15102;SDS011;7652;53.584;9.998;2024-01-07T04:27:23;0.70;;;0.70;;
15102;SDS011;7652;53.584;9.998;2024-01-07T04:30:45;1.87;;;1.20;;
15102;SDS011;7652;53.584;9.998;2024-01-07T04:34:08;1.23;;;0.87;;
15102;SDS011;7652;53.584;9.998;2024-01-07T04:37:30;0.63;;;0.60;;
15102;SDS011;7652;53.584;9.998;2024-01-07T04:40:53;1.37;;;0.80;;
15102;SDS011;7652;53.584;9.998;2024-01-07T04:44:15;1.07;;;0.90;;
15102;SDS011;7652;53.584;9.998;2024-01-07T04:47:36;1.90;;;0.90;;
15102;SDS011;7652;53.584;9.998;2024-01-07T04:50:57;2.80;;;1.10;;
15102;SDS011;7652;53.584;9.998;2024-01-07T04:54:19;0.50;;;0.50;;
15102;SDS011;7652;53.584;9.998;2024-01-07T04:57:41;2.40;;;1.10;;
15102;SDS011;7652;53.584;9.998;2024-01-07T05:01:03;2.67;;;1.10;;
15102;SDS011;7652;53.584;9.998;2024-01-07T05:04:25;1.47;;;1.07;;
15102;SDS011;7652;53.584;9.998;2024-01-07T05:07:46;1.30;;;0.80;;
15102;SDS011;7652;53.584;9.998;2024-01-07T05:11:08;1.63;;;0.80;;
15102;SDS011;7652;53.584;9.998;2024-01-07T05:14:31;3.43;;;0.90;;
15102;SDS011;7652;53.584;9.998;2024-01-07T05:17:52;1.37;;;0.87;;
15102;SDS011;7652;53.584;9.998;2024-01-07T05:21:14;2.90;;;0.97;;
15102;SDS011;7652;53.584;9.998;2024-01-07T05:24:36;2.13;;;0.77;;
15102;SDS011;7652;53.584;9.998;2024-01-07T05:27:58;1.77;;;0.60;;
15102;SDS011;7652;53.584;9.998;2024-01-07T05:31:21;1.70;;;1.17;;
15102;SDS011;7652;53.584;9.998;2024-01-07T05:34:42;1.10;;;0.73;;
15102;SDS011;7652;53.584;9.998;2024-01-07T05:38:04;2.27;;;0.70;;
15102;SDS011;7652;53.584;9.998;2024-01-07T05:41:25;1.23;;;0.80;;
15102;SDS011;7652;53.584;9.998;2024-01-07T05:44:46;0.90;;;0.70;;
15102;SDS011;7652;53.584;9.998;2024-01-07T05:48:09;0.63;;;0.50;;
15102;SDS011;7652;53.584;9.998;2024-01-07T05:51:31;1.33;;;0.80;;
15102;SDS011;7652;53.584;9.998;2024-01-07T05:54:53;3.00;;;0.90;;
15102;SDS011;7652;53.584;9.998;2024-01-07T05:58:14;1.00;;;0.60;;
15102;SDS011;7652;53.584;9.998;2024-01-07T06:01:36;1.70;;;1.10;;
15102;SDS011;7652;53.584;9.998;2024-01-07T06:04:58;2.70;;;0.93;;
15102;SDS011;7652;53.584;9.998;2024-01-07T06:08:20;1.00;;;0.90;;
15102;SDS011;7652;53.584;9.998;2024-01-07T06:11:42;1.63;;;1.00;;
15102;SDS011;7652;53.584;9.998;2024-01-07T06:15:04;1.23;;;0.90;;
15102;SDS011;7652;53.584;9.998;2024-01-07T06:18:26;1.47;;;1.07;;
15102;SDS011;7652;53.584;9.998;2024-01-07T06:21:49;1.03;;;0.93;;
15102;SDS011;7652;53.584;9.998;2024-01-07T06:25:10;1.13;;;0.80;;
15102;SDS011;7652;53.584;9.998;2024-01-07T06:28:32;1.20;;;1.10;;
15102;SDS011;7652;53.584;9.998;2024-01-07T06:31:53;3.30;;;1.07;;
15102;SDS011;7652;53.584;9.998;2024-01-07T06:35:15;1.93;;;1.03;;
15102;SDS011;7652;53.584;9.998;2024-01-07T06:38:37;3.87;;;1.30;;
15102;SDS011;7652;53.584;9.998;2024-01-07T06:41:59;1.17;;;1.07;;
15102;SDS011;7652;53.584;9.998;2024-01-07T06:45:21;2.37;;;1.00;;
15102;SDS011;7652;53.584;9.998;2024-01-07T06:48:42;1.53;;;1.07;;
15102;SDS011;7652;53.584;9.998;2024-01-07T06:52:09;1.97;;;1.17;;
15102;SDS011;7652;53.584;9.998;2024-01-07T06:55:32;1.50;;;1.17;;
15102;SDS011;7652;53.584;9.998;2024-01-07T06:58:54;1.33;;;1.20;;
15102;SDS011;7652;53.584;9.998;2024-01-07T07:02:15;1.87;;;1.20;;
15102;SDS011;7652;53.584;9.998;2024-01-07T07:05:37;2.00;;;1.37;;
15102;SDS011;7652;53.584;9.998;2024-01-07T07:08:58;2.60;;;1.87;;
15102;SDS011;7652;53.584;9.998;2024-01-07T07:12:21;5.50;;;1.73;;
15102;SDS011;7652;53.584;9.998;2024-01-07T07:15:42;3.00;;;1.67;;
15102;SDS011;7652;53.584;9.998;2024-01-07T07:19:03;4.33;;;2.30;;
15102;SDS011;7652;53.584;9.998;2024-01-07T07:22:25;3.23;;;2.00;;
15102;SDS011;7652;53.584;9.998;2024-01-07T07:25:47;2.17;;;1.93;;
15102;SDS011;7652;53.584;9.998;2024-01-07T07:29:09;2.77;;;1.90;;
15102;SDS011;7652;53.584;9.998;2024-01-07T07:32:31;2.90;;;2.33;;
15102;SDS011;7652;53.584;9.998;2024-01-07T07:35:52;2.97;;;2.30;;
15102;SDS011;7652;53.584;9.998;2024-01-07T07:39:14;5.80;;;2.50;;
15102;SDS011;7652;53.584;9.998;2024-01-07T07:42:35;7.47;;;3.30;;
15102;SDS011;7652;53.584;9.998;2024-01-07T07:45:58;6.37;;;2.77;;
15102;SDS011;7652;53.584;9.998;2024-01-07T07:49:23;2.80;;;2.10;;
15102;SDS011;7652;53.584;9.998;2024-01-07T07:52:47;4.07;;;2.37;;
15102;SDS011;7652;53.584;9.998;2024-01-07T07:56:09;4.33;;;2.43;;
15102;SDS011;7652;53.584;9.998;2024-01-07T07:59:30;3.60;;;2.37;;
15102;SDS011;7652;53.584;9.998;2024-01-07T08:02:53;4.73;;;2.70;;
15102;SDS011;7652;53.584;9.998;2024-01-07T08:06:14;3.80;;;2.77;;
15102;SDS011;7652;53.584;9.998;2024-01-07T08:09:36;3.57;;;2.50;;
15102;SDS011;7652;53.584;9.998;2024-01-07T08:12:58;3.57;;;2.70;;
15102;SDS011;7652;53.584;9.998;2024-01-07T08:16:20;6.90;;;3.00;;
15102;SDS011;7652;53.584;9.998;2024-01-07T08:19:42;2.90;;;2.50;;
15102;SDS011;7652;53.584;9.998;2024-01-07T08:23:04;3.67;;;2.73;;
15102;SDS011;7652;53.584;9.998;2024-01-07T08:26:26;5.27;;;2.63;;
15102;SDS011;7652;53.584;9.998;2024-01-07T08:29:47;6.43;;;3.17;;
15102;SDS011;7652;53.584;9.998;2024-01-07T08:33:09;4.00;;;2.90;;
15102;SDS011;7652;53.584;9.998;2024-01-07T08:36:32;6.33;;;3.30;;
15102;SDS011;7652;53.584;9.998;2024-01-07T08:39:54;3.83;;;3.10;;
15102;SDS011;7652;53.584;9.998;2024-01-07T08:43:15;6.63;;;2.70;;
15102;SDS011;7652;53.584;9.998;2024-01-07T08:46:37;3.17;;;2.20;;
15102;SDS011;7652;53.584;9.998;2024-01-07T08:49:58;5.00;;;2.47;;
15102;SDS011;7652;53.584;9.998;2024-01-07T08:53:21;3.50;;;2.13;;
15102;SDS011;7652;53.584;9.998;2024-01-07T08:56:43;4.37;;;2.57;;
15102;SDS011;7652;53.584;9.998;2024-01-07T09:00:05;5.20;;;3.33;;
15102;SDS011;7652;53.584;9.998;2024-01-07T09:03:28;3.27;;;2.47;;
15102;SDS011;7652;53.584;9.998;2024-01-07T09:06:50;5.97;;;2.50;;
15102;SDS011;7652;53.584;9.998;2024-01-07T09:10:13;4.87;;;2.10;;
15102;SDS011;7652;53.584;9.998;2024-01-07T09:13:35;3.47;;;2.10;;
15102;SDS011;7652;53.584;9.998;2024-01-07T09:17:00;4.90;;;2.20;;
15102;SDS011;7652;53.584;9.998;2024-01-07T09:20:23;3.90;;;1.97;;
15102;SDS011;7652;53.584;9.998;2024-01-07T09:23:45;3.07;;;2.27;;
15102;SDS011;7652;53.584;9.998;2024-01-07T09:27:07;3.57;;;2.17;;
15102;SDS011;7652;53.584;9.998;2024-01-07T09:30:29;4.90;;;2.30;;
15102;SDS011;7652;53.584;9.998;2024-01-07T09:33:51;3.30;;;2.43;;
15102;SDS011;7652;53.584;9.998;2024-01-07T09:37:13;5.97;;;2.07;;
15102;SDS011;7652;53.584;9.998;2024-01-07T09:40:35;2.57;;;2.00;;
15102;SDS011;7652;53.584;9.998;2024-01-07T09:44:00;2.60;;;2.23;;
15102;SDS011;7652;53.584;9.998;2024-01-07T09:47:22;3.20;;;2.47;;
15102;SDS011;7652;53.584;9.998;2024-01-07T09:50:44;3.00;;;2.40;;
15102;SDS011;7652;53.584;9.998;2024-01-07T09:54:06;4.13;;;1.90;;
15102;SDS011;7652;53.584;9.998;2024-01-07T09:57:31;4.10;;;2.00;;
15102;SDS011;7652;53.584;9.998;2024-01-07T10:00:54;4.67;;;2.13;;
15102;SDS011;7652;53.584;9.998;2024-01-07T10:04:15;3.00;;;1.73;;
15102;SDS011;7652;53.584;9.998;2024-01-07T10:07:38;3.97;;;2.00;;
15102;SDS011;7652;53.584;9.998;2024-01-07T10:10:59;3.57;;;2.30;;
15102;SDS011;7652;53.584;9.998;2024-01-07T10:14:21;2.03;;;1.80;;
15102;SDS011;7652;53.584;9.998;2024-01-07T10:17:46;3.43;;;2.50;;
15102;SDS011;7652;53.584;9.998;2024-01-07T10:21:08;3.20;;;2.17;;
15102;SDS011;7652;53.584;9.998;2024-01-07T10:24:31;3.87;;;2.27;;
15102;SDS011;7652;53.584;9.998;2024-01-07T10:27:59;9.23;;;2.50;;
15102;SDS011;7652;53.584;9.998;2024-01-07T10:31:21;2.87;;;2.10;;
15102;SDS011;7652;53.584;9.998;2024-01-07T10:34:45;2.53;;;2.00;;
15102;SDS011;7652;53.584;9.998;2024-01-07T10:38:08;2.27;;;2.07;;
15102;SDS011;7652;53.584;9.998;2024-01-07T10:41:29;4.73;;;2.10;;
15102;SDS011;7652;53.584;9.998;2024-01-07T10:44:52;3.20;;;2.00;;
15102;SDS011;7652;53.584;9.998;2024-01-07T10:48:15;2.00;;;1.90;;
15102;SDS011;7652;53.584;9.998;2024-01-07T10:51:41;2.10;;;1.83;;
15102;SDS011;7652;53.584;9.998;2024-01-07T10:55:08;2.33;;;1.77;;
15102;SDS011;7652;53.584;9.998;2024-01-07T10:58:32;2.77;;;2.10;;
15102;SDS011;7652;53.584;9.998;2024-01-07T11:01:54;3.93;;;2.00;;
15102;SDS011;7652;53.584;9.998;2024-01-07T11:05:22;2.97;;;1.97;;
15102;SDS011;7652;53.584;9.998;2024-01-07T11:08:51;4.67;;;2.03;;
15102;SDS011;7652;53.584;9.998;2024-01-07T11:12:16;2.47;;;1.97;;
15102;SDS011;7652;53.584;9.998;2024-01-07T11:15:51;5.17;;;2.43;;
15102;SDS011;7652;53.584;9.998;2024-01-07T11:19:13;5.73;;;2.10;;
15102;SDS011;7652;53.584;9.998;2024-01-07T11:22:35;2.90;;;2.07;;
15102;SDS011;7652;53.584;9.998;2024-01-07T11:25:59;2.43;;;2.20;;
15102;SDS011;7652;53.584;9.998;2024-01-07T11:29:21;4.30;;;2.67;;
15102;SDS011;7652;53.584;9.998;2024-01-07T11:32:42;2.60;;;2.03;;
15102;SDS011;7652;53.584;9.998;2024-01-07T11:36:10;3.93;;;2.63;;
15102;SDS011;7652;53.584;9.998;2024-01-07T11:39:32;2.57;;;1.97;;
15102;SDS011;7652;53.584;9.998;2024-01-07T11:42:56;5.90;;;2.50;;
15102;SDS011;7652;53.584;9.998;2024-01-07T11:46:18;3.50;;;1.87;;
15102;SDS011;7652;53.584;9.998;2024-01-07T11:49:40;4.97;;;2.27;;
15102;SDS011;7652;53.584;9.998;2024-01-07T11:53:02;2.70;;;1.73;;
15102;SDS011;7652;53.584;9.998;2024-01-07T11:56:23;3.03;;;1.90;;
15102;SDS011;7652;53.584;9.998;2024-01-07T11:59:47;2.67;;;2.00;;
15102;SDS011;7652;53.584;9.998;2024-01-07T12:03:08;2.63;;;1.80;;
15102;SDS011;7652;53.584;9.998;2024-01-07T12:06:31;2.87;;;2.07;;
15102;SDS011;7652;53.584;9.998;2024-01-07T12:09:55;4.53;;;1.80;;
15102;SDS011;7652;53.584;9.998;2024-01-07T12:13:17;2.30;;;1.80;;
15102;SDS011;7652;53.584;9.998;2024-01-07T12:16:41;2.43;;;1.40;;
15102;SDS011;7652;53.584;9.998;2024-01-07T12:20:03;3.10;;;1.73;;
15102;SDS011;7652;53.584;9.998;2024-01-07T12:23:27;3.13;;;1.57;;
15102;SDS011;7652;53.584;9.998;2024-01-07T12:26:48;2.63;;;1.70;;
15102;SDS011;7652;53.584;9.998;2024-01-07T12:30:10;2.77;;;1.70;;
15102;SDS011;7652;53.584;9.998;2024-01-07T12:33:34;3.13;;;2.00;;
15102;SDS011;7652;53.584;9.998;2024-01-07T12:36:58;5.13;;;1.80;;
15102;SDS011;7652;53.584;9.998;2024-01-07T12:40:22;3.83;;;1.83;;
15102;SDS011;7652;53.584;9.998;2024-01-07T12:43:45;4.07;;;2.50;;
15102;SDS011;7652;53.584;9.998;2024-01-07T12:47:06;2.50;;;2.20;;
15102;SDS011;7652;53.584;9.998;2024-01-07T12:50:29;1.93;;;1.73;;
15102;SDS011;7652;53.584;9.998;2024-01-07T12:53:51;3.77;;;1.87;;
15102;SDS011;7652;53.584;9.998;2024-01-07T12:57:13;3.70;;;2.17;;
15102;SDS011;7652;53.584;9.998;2024-01-07T13:00:34;2.23;;;1.90;;
15102;SDS011;7652;53.584;9.998;2024-01-07T13:03:56;3.30;;;2.10;;
15102;SDS011;7652;53.584;9.998;2024-01-07T13:07:20;1.97;;;1.60;;
15102;SDS011;7652;53.584;9.998;2024-01-07T13:10:43;2.83;;;1.67;;
15102;SDS011;7652;53.584;9.998;2024-01-07T13:14:05;3.67;;;2.03;;
15102;SDS011;7652;53.584;9.998;2024-01-07T13:17:27;2.43;;;1.87;;
15102;SDS011;7652;53.584;9.998;2024-01-07T13:20:50;1.93;;;1.70;;
15102;SDS011;7652;53.584;9.998;2024-01-07T13:24:13;4.10;;;2.10;;
15102;SDS011;7652;53.584;9.998;2024-01-07T13:27:34;3.13;;;1.70;;
15102;SDS011;7652;53.584;9.998;2024-01-07T13:30:57;4.17;;;1.77;;
15102;SDS011;7652;53.584;9.998;2024-01-07T13:34:19;4.60;;;1.63;;
15102;SDS011;7652;53.584;9.998;2024-01-07T13:37:41;2.57;;;2.00;;
15102;SDS011;7652;53.584;9.998;2024-01-07T13:41:04;1.70;;;1.60;;
15102;SDS011;7652;53.584;9.998;2024-01-07T13:44:26;1.53;;;1.33;;
15102;SDS011;7652;53.584;9.998;2024-01-07T13:47:47;1.90;;;1.70;;
15102;SDS011;7652;53.584;9.998;2024-01-07T13:51:09;2.23;;;1.40;;
15102;SDS011;7652;53.584;9.998;2024-01-07T13:54:31;2.10;;;1.40;;
15102;SDS011;7652;53.584;9.998;2024-01-07T13:57:54;2.57;;;2.07;;
15102;SDS011;7652;53.584;9.998;2024-01-07T14:01:17;2.57;;;1.53;;
15102;SDS011;7652;53.584;9.998;2024-01-07T14:04:39;1.73;;;1.50;;
15102;SDS011;7652;53.584;9.998;2024-01-07T14:08:00;3.03;;;1.50;;
15102;SDS011;7652;53.584;9.998;2024-01-07T14:11:22;1.90;;;1.30;;
15102;SDS011;7652;53.584;9.998;2024-01-07T14:14:44;2.90;;;1.60;;
15102;SDS011;7652;53.584;9.998;2024-01-07T14:18:06;2.03;;;1.67;;
15102;SDS011;7652;53.584;9.998;2024-01-07T14:21:30;3.27;;;1.60;;
15102;SDS011;7652;53.584;9.998;2024-01-07T14:24:51;3.60;;;1.43;;
15102;SDS011;7652;53.584;9.998;2024-01-07T14:28:13;1.80;;;1.33;;
15102;SDS011;7652;53.584;9.998;2024-01-07T14:31:36;1.40;;;1.30;;
15102;SDS011;7652;53.584;9.998;2024-01-07T14:34:58;2.10;;;1.60;;
15102;SDS011;7652;53.584;9.998;2024-01-07T14:38:20;4.53;;;1.60;;
15102;SDS011;7652;53.584;9.998;2024-01-07T14:41:42;2.20;;;1.10;;
15102;SDS011;7652;53.584;9.998;2024-01-07T14:45:04;1.57;;;1.40;;
15102;SDS011;7652;53.584;9.998;2024-01-07T14:48:27;2.07;;;1.50;;
15102;SDS011;7652;53.584;9.998;2024-01-07T14:51:49;1.63;;;1.40;;
15102;SDS011;7652;53.584;9.998;2024-01-07T14:55:11;1.73;;;1.50;;
15102;SDS011;7652;53.584;9.998;2024-01-07T14:58:33;1.27;;;1.17;;
15102;SDS011;7652;53.584;9.998;2024-01-07T15:01:54;1.37;;;1.27;;
15102;SDS011;7652;53.584;9.998;2024-01-07T15:05:18;1.60;;;1.13;;
15102;SDS011;7652;53.584;9.998;2024-01-07T15:08:40;3.40;;;1.20;;
15102;SDS011;7652;53.584;9.998;2024-01-07T15:12:02;4.37;;;1.90;;
15102;SDS011;7652;53.584;9.998;2024-01-07T15:15:24;2.63;;;1.90;;
15102;SDS011;7652;53.584;9.998;2024-01-07T15:18:49;2.40;;;1.60;;
15102;SDS011;7652;53.584;9.998;2024-01-07T15:22:12;5.20;;;2.80;;
15102;SDS011;7652;53.584;9.998;2024-01-07T15:25:34;2.70;;;2.20;;
15102;SDS011;7652;53.584;9.998;2024-01-07T15:28:56;1.87;;;1.60;;
15102;SDS011;7652;53.584;9.998;2024-01-07T15:32:18;2.30;;;1.77;;
15102;SDS011;7652;53.584;9.998;2024-01-07T15:35:40;3.03;;;1.97;;
15102;SDS011;7652;53.584;9.998;2024-01-07T15:39:02;1.77;;;1.57;;
15102;SDS011;7652;53.584;9.998;2024-01-07T15:42:24;1.80;;;1.20;;
15102;SDS011;7652;53.584;9.998;2024-01-07T15:45:46;1.37;;;1.27;;
15102;SDS011;7652;53.584;9.998;2024-01-07T15:49:07;2.37;;;1.40;;
15102;SDS011;7652;53.584;9.998;2024-01-07T15:52:29;1.30;;;1.20;;
15102;SDS011;7652;53.584;9.998;2024-01-07T15:55:52;2.10;;;1.33;;
15102;SDS011;7652;53.584;9.998;2024-01-07T15:59:14;2.23;;;1.50;;
15102;SDS011;7652;53.584;9.998;2024-01-07T16:02:37;1.50;;;1.40;;
15102;SDS011;7652;53.584;9.998;2024-01-07T16:05:58;1.70;;;1.40;;
15102;SDS011;7652;53.584;9.998;2024-01-07T16:09:20;1.80;;;1.40;;
15102;SDS011;7652;53.584;9.998;2024-01-07T16:12:43;3.27;;;1.63;;
15102;SDS011;7652;53.584;9.998;2024-01-07T16:16:04;2.30;;;1.70;;
15102;SDS011;7652;53.584;9.998;2024-01-07T16:19:26;2.60;;;2.40;;
15102;SDS011;7652;53.584;9.998;2024-01-07T16:22:49;2.57;;;2.30;;
15102;SDS011;7652;53.584;9.998;2024-01-07T16:26:10;2.30;;;2.03;;
15102;SDS011;7652;53.584;9.998;2024-01-07T16:29:33;2.30;;;2.10;;
15102;SDS011;7652;53.584;9.998;2024-01-07T16:33:04;3.90;;;2.13;;
15102;SDS011;7652;53.584;9.998;2024-01-07T16:36:29;3.20;;;2.50;;
15102;SDS011;7652;53.584;9.998;2024-01-07T16:39:50;2.70;;;2.13;;
15102;SDS011;7652;53.584;9.998;2024-01-07T16:43:11;4.17;;;2.03;;
15102;SDS011;7652;53.584;9.998;2024-01-07T16:46:34;3.17;;;2.10;;
15102;SDS011;7652;53.584;9.998;2024-01-07T16:49:56;2.63;;;1.80;;
15102;SDS011;7652;53.584;9.998;2024-01-07T16:53:20;2.93;;;2.37;;
15102;SDS011;7652;53.584;9.998;2024-01-07T16:56:42;3.03;;;2.73;;
15102;SDS011;7652;53.584;9.998;2024-01-07T17:00:04;3.10;;;2.23;;
15102;SDS011;7652;53.584;9.998;2024-01-07T17:03:29;4.20;;;2.57;;
15102;SDS011;7652;53.584;9.998;2024-01-07T17:06:50;3.93;;;2.97;;
15102;SDS011;7652;53.584;9.998;2024-01-07T17:10:12;6.23;;;3.07;;
15102;SDS011;7652;53.584;9.998;2024-01-07T17:13:33;3.30;;;2.60;;
15102;SDS011;7652;53.584;9.998;2024-01-07T17:16:56;3.57;;;3.00;;
15102;SDS011;7652;53.584;9.998;2024-01-07T17:20:19;6.73;;;4.07;;
15102;SDS011;7652;53.584;9.998;2024-01-07T17:23:41;4.90;;;3.13;;
15102;SDS011;7652;53.584;9.998;2024-01-07T17:27:07;7.07;;;4.03;;
15102;SDS011;7652;53.584;9.998;2024-01-07T17:30:28;3.70;;;3.23;;
15102;SDS011;7652;53.584;9.998;2024-01-07T17:33:49;5.17;;;3.20;;
15102;SDS011;7652;53.584;9.998;2024-01-07T17:37:12;3.83;;;2.90;;
15102;SDS011;7652;53.584;9.998;2024-01-07T17:40:34;4.97;;;2.90;;
15102;SDS011;7652;53.584;9.998;2024-01-07T17:43:55;7.07;;;3.60;;
15102;SDS011;7652;53.584;9.998;2024-01-07T17:47:17;7.40;;;4.07;;
15102;SDS011;7652;53.584;9.998;2024-01-07T17:50:38;7.73;;;3.87;;
15102;SDS011;7652;53.584;9.998;2024-01-07T17:54:09;6.80;;;4.50;;
15102;SDS011;7652;53.584;9.998;2024-01-07T17:57:31;7.20;;;4.20;;
15102;SDS011;7652;53.584;9.998;2024-01-07T18:00:54;8.50;;;5.27;;
15102;SDS011;7652;53.584;9.998;2024-01-07T18:04:17;4.67;;;3.50;;
15102;SDS011;7652;53.584;9.998;2024-01-07T18:07:38;7.17;;;3.73;;
15102;SDS011;7652;53.584;9.998;2024-01-07T18:11:01;5.40;;;3.67;;
15102;SDS011;7652;53.584;9.998;2024-01-07T18:14:25;3.50;;;2.67;;
15102;SDS011;7652;53.584;9.998;2024-01-07T18:17:47;3.27;;;2.87;;
15102;SDS011;7652;53.584;9.998;2024-01-07T18:21:12;3.50;;;2.73;;
15102;SDS011;7652;53.584;9.998;2024-01-07T18:24:34;3.47;;;2.80;;
15102;SDS011;7652;53.584;9.998;2024-01-07T18:27:57;4.70;;;3.00;;
15102;SDS011;7652;53.584;9.998;2024-01-07T18:31:19;3.67;;;3.03;;
15102;SDS011;7652;53.584;9.998;2024-01-07T18:34:40;3.30;;;2.57;;
15102;SDS011;7652;53.584;9.998;2024-01-07T18:38:04;4.57;;;3.00;;
15102;SDS011;7652;53.584;9.998;2024-01-07T18:41:27;9.80;;;3.27;;
15102;SDS011;7652;53.584;9.998;2024-01-07T18:44:50;8.60;;;4.00;;
15102;SDS011;7652;53.584;9.998;2024-01-07T18:48:13;4.30;;;3.53;;
15102;SDS011;7652;53.584;9.998;2024-01-07T18:51:38;5.57;;;3.87;;
15102;SDS011;7652;53.584;9.998;2024-01-07T18:55:00;3.63;;;2.97;;
15102;SDS011;7652;53.584;9.998;2024-01-07T18:58:22;6.47;;;3.50;;
15102;SDS011;7652;53.584;9.998;2024-01-07T19:01:45;4.57;;;3.50;;
15102;SDS011;7652;53.584;9.998;2024-01-07T19:05:07;6.90;;;3.00;;
15102;SDS011;7652;53.584;9.998;2024-01-07T19:08:29;5.07;;;3.10;;
15102;SDS011;7652;53.584;9.998;2024-01-07T19:11:51;5.83;;;3.63;;
15102;SDS011;7652;53.584;9.998;2024-01-07T19:15:12;6.73;;;3.07;;
15102;SDS011;7652;53.584;9.998;2024-01-07T19:18:36;4.20;;;3.37;;
15102;SDS011;7652;53.584;9.998;2024-01-07T19:21:58;6.00;;;4.03;;
15102;SDS011;7652;53.584;9.998;2024-01-07T19:25:19;5.77;;;3.57;;
15102;SDS011;7652;53.584;9.998;2024-01-07T19:28:40;9.33;;;5.03;;
15102;SDS011;7652;53.584;9.998;2024-01-07T19:32:03;4.73;;;3.43;;
15102;SDS011;7652;53.584;9.998;2024-01-07T19:35:26;4.33;;;3.63;;
15102;SDS011;7652;53.584;9.998;2024-01-07T19:38:50;8.57;;;5.27;;
15102;SDS011;7652;53.584;9.998;2024-01-07T19:42:12;4.63;;;3.67;;
15102;SDS011;7652;53.584;9.998;2024-01-07T19:45:34;5.67;;;3.57;;
15102;SDS011;7652;53.584;9.998;2024-01-07T19:48:58;5.00;;;3.67;;
15102;SDS011;7652;53.584;9.998;2024-01-07T19:52:23;4.67;;;3.03;;
15102;SDS011;7652;53.584;9.998;2024-01-07T19:55:45;7.53;;;3.47;;
15102;SDS011;7652;53.584;9.998;2024-01-07T19:59:07;5.53;;;3.83;;
15102;SDS011;7652;53.584;9.998;2024-01-07T20:02:29;4.30;;;3.43;;
15102;SDS011;7652;53.584;9.998;2024-01-07T20:05:51;6.07;;;4.10;;
15102;SDS011;7652;53.584;9.998;2024-01-07T20:09:14;6.17;;;4.20;;
15102;SDS011;7652;53.584;9.998;2024-01-07T20:12:35;5.00;;;3.87;;
15102;SDS011;7652;53.584;9.998;2024-01-07T20:15:58;4.73;;;3.57;;
15102;SDS011;7652;53.584;9.998;2024-01-07T20:19:20;5.63;;;4.30;;
15102;SDS011;7652;53.584;9.998;2024-01-07T20:22:42;4.07;;;3.57;;
15102;SDS011;7652;53.584;9.998;2024-01-07T20:26:04;5.83;;;3.23;;
15102;SDS011;7652;53.584;9.998;2024-01-07T20:29:26;5.33;;;4.20;;
15102;SDS011;7652;53.584;9.998;2024-01-07T20:32:48;5.57;;;3.73;;
15102;SDS011;7652;53.584;9.998;2024-01-07T20:36:09;5.33;;;3.80;;